Terminal Aerodrome Forecast
Issued by NWS

Home | Current Version | Previous Version | Text Only | Print | Product List | Glossary Off
Versions: 1 2 3 4 5 6 7 8 9 10 11 12

726
FTUS43 KMPX 281720
TAFRWF
TAF
KRWF 281720Z 2818/2918 09006KT P6SM BKN200
     FM291200 11008KT P6SM BKN060 OVC120=

USA.gov is the U.S. government's official web portal to all federal, state and local government web resources and services.